createdAt,value
2023-12-01T00:01:46.665Z,47.80
2023-12-01T00:04:19.316Z,48.60
2023-12-01T00:06:52.007Z,48.60
2023-12-01T00:09:25.010Z,47.80
2023-12-01T00:11:57.394Z,47.30
2023-12-01T00:14:29.683Z,46.20
2023-12-01T00:17:03.268Z,46.90
2023-12-01T00:19:36.057Z,45.30
2023-12-01T00:22:08.975Z,46.50
2023-12-01T00:24:41.444Z,46.30
2023-12-01T00:27:14.126Z,47.70
2023-12-01T00:29:46.584Z,47.30
2023-12-01T00:32:19.046Z,43.20
2023-12-01T00:34:51.590Z,47.30
2023-12-01T00:37:23.899Z,50.80
2023-12-01T00:39:56.341Z,46.40
2023-12-01T00:42:28.767Z,46.50
2023-12-01T00:45:02.265Z,48.70
2023-12-01T00:47:34.875Z,46.70
2023-12-01T00:50:09.162Z,46.70
2023-12-01T00:52:41.661Z,43.90
2023-12-01T00:55:14.196Z,48.50
2023-12-01T00:57:47.080Z,51.60
2023-12-01T01:00:20.900Z,52.50
2023-12-01T01:02:53.422Z,50.40
2023-12-01T01:05:26.308Z,48.70
2023-12-01T01:07:58.777Z,48.50
2023-12-01T01:10:31.166Z,45.50
2023-12-01T01:13:03.704Z,50.10
2023-12-01T01:15:36.258Z,49.00
2023-12-01T01:18:09.031Z,49.60
2023-12-01T01:20:41.485Z,46.30
2023-12-01T01:23:13.912Z,49.10
2023-12-01T01:25:46.616Z,46.60
2023-12-01T01:28:20.093Z,47.60
2023-12-01T01:30:52.975Z,50.30
2023-12-01T01:33:25.374Z,49.20
2023-12-01T01:35:57.716Z,45.40
2023-12-01T01:38:31.075Z,48.10
2023-12-01T01:41:03.619Z,48.20
2023-12-01T01:43:36.119Z,46.40
2023-12-01T01:46:12.513Z,49.30
2023-12-01T01:48:45.353Z,50.40
2023-12-01T01:51:18.414Z,47.10
2023-12-01T01:53:51.763Z,43.30
2023-12-01T01:56:25.161Z,49.10
2023-12-01T01:58:57.624Z,47.20
2023-12-01T02:01:31.255Z,49.90
2023-12-01T02:04:05.071Z,46.70
2023-12-01T02:06:38.492Z,50.60
2023-12-01T02:09:11.699Z,49.90
2023-12-01T02:11:44.702Z,48.00
2023-12-01T02:14:17.907Z,37.00
2023-12-01T02:16:50.997Z,43.30
2023-12-01T02:19:23.512Z,39.90
2023-12-01T02:21:56.669Z,31.00
2023-12-01T02:24:29.385Z,32.10
2023-12-01T02:27:01.834Z,30.50
2023-12-01T02:29:34.250Z,30.00
2023-12-01T02:32:09.373Z,35.40
2023-12-01T02:34:46.802Z,40.10
2023-12-01T02:37:19.202Z,36.00
2023-12-01T02:39:52.260Z,35.60
2023-12-01T02:42:24.674Z,34.40
2023-12-01T02:44:57.192Z,40.20
2023-12-01T02:47:29.569Z,36.10
2023-12-01T02:50:01.901Z,37.80
2023-12-01T02:52:34.268Z,38.70
2023-12-01T02:55:09.236Z,37.80
2023-12-01T02:57:42.270Z,34.90
2023-12-01T03:00:16.111Z,38.40
2023-12-01T03:02:49.313Z,37.10
2023-12-01T03:05:22.619Z,35.60
2023-12-01T03:07:55.065Z,38.30
2023-12-01T03:10:27.562Z,38.40
2023-12-01T03:13:00.033Z,38.90
2023-12-01T03:15:32.821Z,41.80
2023-12-01T03:18:05.311Z,37.90
2023-12-01T03:20:37.725Z,42.80
2023-12-01T03:23:10.225Z,42.00
2023-12-01T03:25:42.656Z,41.70
2023-12-01T03:28:16.403Z,36.90
2023-12-01T03:30:49.010Z,44.30
2023-12-01T03:33:21.370Z,44.00
2023-12-01T03:35:53.832Z,48.30
2023-12-01T03:38:26.454Z,41.50
2023-12-01T03:41:01.464Z,41.10
2023-12-01T03:43:34.644Z,43.10
2023-12-01T03:46:07.907Z,40.90
2023-12-01T03:48:40.347Z,42.20
2023-12-01T03:51:12.936Z,39.00
2023-12-01T03:53:45.275Z,38.40
2023-12-01T03:56:17.783Z,42.60
2023-12-01T03:58:50.386Z,39.70
2023-12-01T04:01:22.822Z,39.60
2023-12-01T04:03:55.840Z,37.90
2023-12-01T04:06:28.323Z,39.70
2023-12-01T04:09:06.488Z,36.40
2023-12-01T04:11:39.847Z,39.00
2023-12-01T04:14:12.289Z,39.90
2023-12-01T04:16:44.750Z,34.50
2023-12-01T04:19:17.124Z,37.60
2023-12-01T04:21:49.399Z,39.30
2023-12-01T04:24:22.617Z,37.20
2023-12-01T04:26:55.092Z,36.00
2023-12-01T04:29:29.285Z,36.00
2023-12-01T04:32:02.645Z,36.10
2023-12-01T04:34:35.312Z,35.60
2023-12-01T04:37:10.949Z,35.40
2023-12-01T04:39:43.582Z,33.10
2023-12-01T04:42:17.039Z,33.10
2023-12-01T04:44:50.896Z,32.90
2023-12-01T04:47:24.519Z,34.00
2023-12-01T04:49:57.091Z,30.20
2023-12-01T04:52:29.643Z,30.70
2023-12-01T04:55:02.210Z,30.90
2023-12-01T04:57:34.541Z,34.30
2023-12-01T05:00:20.333Z,28.50
2023-12-01T05:02:54.024Z,30.70
2023-12-01T05:05:28.249Z,29.10
2023-12-01T05:08:02.433Z,28.40
2023-12-01T05:10:36.264Z,27.90
2023-12-01T05:13:10.221Z,29.50
2023-12-01T05:15:43.366Z,31.20
2023-12-01T05:18:16.020Z,27.40
2023-12-01T05:20:49.581Z,26.50
2023-12-01T05:23:22.358Z,26.00
2023-12-01T05:25:54.796Z,24.70
2023-12-01T05:28:27.342Z,24.70
2023-12-01T05:30:59.979Z,27.30
2023-12-01T05:33:38.059Z,25.80
2023-12-01T05:36:15.570Z,24.50
2023-12-01T05:38:48.131Z,25.00
2023-12-01T05:41:20.638Z,20.90
2023-12-01T05:43:53.041Z,21.70
2023-12-01T05:46:25.556Z,20.40
2023-12-01T05:48:58.971Z,22.00
2023-12-01T05:51:34.507Z,19.30
2023-12-01T05:54:07.146Z,19.70
2023-12-01T05:56:39.609Z,22.10
2023-12-01T05:59:12.046Z,19.40
2023-12-01T06:01:44.621Z,19.00
2023-12-01T06:04:17.163Z,17.30
2023-12-01T06:06:49.705Z,20.30
2023-12-01T06:09:22.772Z,18.00
2023-12-01T06:11:55.333Z,20.20
2023-12-01T06:14:27.764Z,22.60
2023-12-01T06:17:00.439Z,19.40
2023-12-01T06:19:34.439Z,20.20
2023-12-01T06:22:07.328Z,22.50
2023-12-01T06:24:39.832Z,21.20
2023-12-01T06:27:13.377Z,23.00
2023-12-01T06:29:45.993Z,21.90
2023-12-01T06:32:18.452Z,22.50
2023-12-01T06:34:50.927Z,25.10
2023-12-01T06:37:23.354Z,21.40
2023-12-01T06:39:55.795Z,22.70
2023-12-01T06:42:28.237Z,23.40
2023-12-01T06:45:00.524Z,25.10
2023-12-01T06:47:33.565Z,21.80
2023-12-01T06:50:07.226Z,20.30
2023-12-01T06:52:40.348Z,19.50
2023-12-01T06:55:13.641Z,24.00
2023-12-01T06:57:49.777Z,20.70
2023-12-01T07:00:34.931Z,21.00
2023-12-01T07:03:10.521Z,27.20
2023-12-01T07:05:46.671Z,21.20
2023-12-01T07:08:19.267Z,21.30
2023-12-01T07:10:53.214Z,21.80
2023-12-01T07:13:26.035Z,19.80
2023-12-01T07:15:58.784Z,21.10
2023-12-01T07:18:31.219Z,18.70
2023-12-01T07:21:07.767Z,19.50
2023-12-01T07:23:42.840Z,18.60
2023-12-01T07:26:16.784Z,16.70
2023-12-01T07:28:49.308Z,17.90
2023-12-01T07:31:21.882Z,17.80
2023-12-01T07:33:56.771Z,16.60
2023-12-01T07:36:35.896Z,15.90
2023-12-01T07:39:14.608Z,18.20
2023-12-01T07:41:49.541Z,17.90
2023-12-01T07:44:24.525Z,19.80
2023-12-01T07:46:57.150Z,15.50
2023-12-01T07:49:32.082Z,15.60
2023-12-01T07:52:08.112Z,17.10
2023-12-01T07:54:42.631Z,15.60
2023-12-01T07:57:15.424Z,16.80
2023-12-01T07:59:47.974Z,16.90
2023-12-01T08:02:20.611Z,12.40
2023-12-01T08:04:53.265Z,15.40
2023-12-01T08:07:25.802Z,16.20
2023-12-01T08:09:58.488Z,18.50
2023-12-01T08:12:31.048Z,18.70
2023-12-01T08:15:03.597Z,14.20
2023-12-01T08:17:36.212Z,15.80
2023-12-01T08:20:11.821Z,14.00
2023-12-01T08:22:47.477Z,14.10
2023-12-01T08:25:23.933Z,14.70
2023-12-01T08:27:56.512Z,17.30
2023-12-01T08:30:29.682Z,16.00
2023-12-01T08:33:02.589Z,21.20
2023-12-01T08:35:35.241Z,20.70
2023-12-01T08:38:07.672Z,16.80
2023-12-01T08:40:43.548Z,17.20
2023-12-01T08:43:17.386Z,19.00
2023-12-01T08:45:49.849Z,20.20
2023-12-01T08:48:22.413Z,19.20
2023-12-01T08:50:54.912Z,20.60
2023-12-01T08:53:27.485Z,24.00
2023-12-01T08:56:01.602Z,20.60
2023-12-01T08:58:38.048Z,20.50
2023-12-01T09:01:10.947Z,22.70
2023-12-01T09:03:43.468Z,19.90
2023-12-01T09:06:16.453Z,21.30
2023-12-01T09:08:48.971Z,20.20
2023-12-01T09:11:21.656Z,19.50
2023-12-01T09:13:54.628Z,20.30
2023-12-01T09:16:31.316Z,26.30
2023-12-01T09:19:06.025Z,22.40
2023-12-01T09:21:40.004Z,23.10
2023-12-01T09:24:12.562Z,18.20
2023-12-01T09:26:45.048Z,18.60
2023-12-01T09:29:17.585Z,22.40
2023-12-01T09:31:51.083Z,26.90
2023-12-01T09:34:23.576Z,22.30
2023-12-01T09:36:58.604Z,20.50
2023-12-01T09:39:31.449Z,20.40
2023-12-01T09:42:09.427Z,18.20
2023-12-01T09:44:42.137Z,21.70
2023-12-01T09:47:18.640Z,17.70
2023-12-01T09:49:53.998Z,22.00
2023-12-01T09:52:26.581Z,17.00
2023-12-01T09:55:07.745Z,17.80
2023-12-01T09:57:44.182Z,19.70
2023-12-01T10:00:18.397Z,19.80
2023-12-01T10:02:51.187Z,22.10
2023-12-01T10:05:23.812Z,18.50
2023-12-01T10:07:57.335Z,20.50
2023-12-01T10:10:30.967Z,21.20
2023-12-01T10:13:06.266Z,20.00
2023-12-01T10:15:40.080Z,20.10
2023-12-01T10:18:20.416Z,19.50
2023-12-01T10:21:05.213Z,19.50
2023-12-01T10:23:38.990Z,19.10
2023-12-01T10:26:13.281Z,18.50
2023-12-01T10:28:46.016Z,19.30
2023-12-01T10:31:20.405Z,21.50
2023-12-01T10:33:53.374Z,23.20
2023-12-01T10:36:26.082Z,26.10
2023-12-01T10:39:03.113Z,23.60
2023-12-01T10:41:36.894Z,21.50
2023-12-01T10:44:10.504Z,22.70
2023-12-01T10:46:46.523Z,21.90
2023-12-01T10:49:21.210Z,25.10
2023-12-01T10:51:55.281Z,24.20
2023-12-01T10:54:31.496Z,24.90
2023-12-01T10:57:24.604Z,21.50
2023-12-01T10:59:59.896Z,21.30
2023-12-01T11:02:40.984Z,19.10
2023-12-01T11:05:15.195Z,19.90
2023-12-01T11:08:03.401Z,20.70
2023-12-01T11:10:43.584Z,20.60
2023-12-01T11:13:29.614Z,18.50
2023-12-01T11:16:02.888Z,19.70
2023-12-01T11:18:35.647Z,23.10
2023-12-01T11:21:10.073Z,20.10
2023-12-01T11:23:42.764Z,20.10
2023-12-01T11:26:15.569Z,16.20
2023-12-01T11:28:57.297Z,18.70
2023-12-01T11:31:38.452Z,18.40
2023-12-01T11:34:18.255Z,20.20
2023-12-01T11:36:54.335Z,17.00
2023-12-01T11:39:38.717Z,16.00
2023-12-01T11:42:21.673Z,16.50
2023-12-01T11:45:02.028Z,15.50
2023-12-01T11:47:41.218Z,15.10
2023-12-01T11:50:18.015Z,16.60
2023-12-01T11:52:56.600Z,18.00
2023-12-01T11:55:36.226Z,19.60
2023-12-01T11:58:09.840Z,16.00
2023-12-01T12:00:47.272Z,15.20
2023-12-01T12:03:27.087Z,15.60
2023-12-01T12:06:09.637Z,14.30
2023-12-01T12:08:49.038Z,15.80
2023-12-01T12:11:27.052Z,15.20
2023-12-01T12:14:05.942Z,14.80
2023-12-01T12:19:33.639Z,16.20
2023-12-01T12:22:06.984Z,17.30
2023-12-01T12:24:50.193Z,18.40
2023-12-01T12:27:25.216Z,14.40
2023-12-01T12:30:05.293Z,17.50
2023-12-01T12:32:45.820Z,15.90
2023-12-01T12:35:24.352Z,17.10
2023-12-01T12:37:58.063Z,15.20
2023-12-01T12:40:36.694Z,16.70
2023-12-01T12:45:49.840Z,15.00
2023-12-01T12:48:28.527Z,15.00
2023-12-01T12:51:16.930Z,15.80
2023-12-01T12:53:51.981Z,16.50
2023-12-01T12:56:37.806Z,14.50
2023-12-01T12:59:22.944Z,18.00
2023-12-01T13:02:16.605Z,16.20
2023-12-01T13:04:52.712Z,13.00
2023-12-01T13:07:27.531Z,12.70
2023-12-01T13:10:03.033Z,12.90
2023-12-01T13:12:51.284Z,15.40
2023-12-01T13:15:35.553Z,14.90
2023-12-01T13:18:14.956Z,17.00
2023-12-01T13:20:59.470Z,15.50
2023-12-01T13:23:37.445Z,14.20
2023-12-01T13:26:16.132Z,12.30
2023-12-01T13:28:48.637Z,14.80
2023-12-01T13:31:31.380Z,15.30
2023-12-01T13:34:06.559Z,15.70
2023-12-01T13:36:43.325Z,17.60
2023-12-01T13:39:21.359Z,15.70
2023-12-01T13:42:09.109Z,15.10
2023-12-01T13:44:55.144Z,14.70
2023-12-01T13:47:33.686Z,15.50
2023-12-01T13:50:19.923Z,17.10
2023-12-01T13:52:57.175Z,16.50
2023-12-01T13:55:31.066Z,15.10
2023-12-01T13:58:08.918Z,14.70
2023-12-01T14:00:50.421Z,16.80
2023-12-01T14:03:29.890Z,18.50
2023-12-01T14:06:16.588Z,16.60
2023-12-01T14:08:51.642Z,15.30
2023-12-01T14:11:26.506Z,16.00
2023-12-01T14:14:01.686Z,18.20
2023-12-01T14:16:42.885Z,16.40
2023-12-01T14:19:20.643Z,16.00
2023-12-01T14:21:55.644Z,18.90
2023-12-01T14:24:33.065Z,17.80
2023-12-01T14:27:09.862Z,19.30
2023-12-01T14:29:49.042Z,18.90
2023-12-01T14:32:26.337Z,18.20
2023-12-01T14:35:04.572Z,16.50
2023-12-01T14:37:43.175Z,16.00
2023-12-01T14:40:21.060Z,16.10
2023-12-01T14:42:55.780Z,15.60
2023-12-01T14:45:30.488Z,19.00
2023-12-01T14:48:09.642Z,17.00
2023-12-01T14:50:51.462Z,18.30
2023-12-01T14:53:27.419Z,17.00
2023-12-01T14:56:08.608Z,17.60
2023-12-01T14:58:42.180Z,18.50
2023-12-01T15:01:16.251Z,18.60
2023-12-01T15:08:25.271Z,16.50
2023-12-01T15:11:07.225Z,19.00
2023-12-01T15:13:39.798Z,19.00
2023-12-01T15:16:20.525Z,17.30
2023-12-01T15:18:53.120Z,19.90
2023-12-01T15:21:25.902Z,17.50
2023-12-01T15:23:58.703Z,18.10
2023-12-01T15:26:31.267Z,16.50
2023-12-01T15:29:04.349Z,18.10
2023-12-01T15:31:36.754Z,20.00
2023-12-01T15:34:11.881Z,17.90
2023-12-01T15:36:44.359Z,22.70
2023-12-01T15:39:17.121Z,22.70
2023-12-01T15:41:49.915Z,22.50
2023-12-01T15:44:22.335Z,21.00
2023-12-01T15:46:55.552Z,20.70
2023-12-01T15:49:28.378Z,24.20
2023-12-01T15:52:04.432Z,25.00
2023-12-01T15:54:40.043Z,25.00
2023-12-01T15:57:13.936Z,21.80
2023-12-01T15:59:47.071Z,22.90
2023-12-01T16:02:20.278Z,27.70
2023-12-01T16:04:52.951Z,27.10
2023-12-01T16:07:25.410Z,26.40
2023-12-01T16:09:57.829Z,24.10
2023-12-01T16:12:30.229Z,31.00
2023-12-01T16:15:12.902Z,28.50
2023-12-01T16:17:50.457Z,27.10
2023-12-01T16:20:23.175Z,28.60
2023-12-01T16:22:56.436Z,33.10
2023-12-01T16:25:29.435Z,31.70
2023-12-01T16:28:01.931Z,32.70
2023-12-01T16:30:34.694Z,34.20
2023-12-01T16:33:07.515Z,36.10
2023-12-01T16:35:46.438Z,35.40
2023-12-01T16:38:20.308Z,39.40
2023-12-01T16:40:55.860Z,33.80
2023-12-01T16:43:34.163Z,34.90
2023-12-01T16:46:14.727Z,35.80
2023-12-01T16:48:57.247Z,38.50
2023-12-01T16:51:32.897Z,35.70
2023-12-01T16:54:11.110Z,36.60
2023-12-01T16:56:52.032Z,35.80
2023-12-01T16:59:36.824Z,31.80
2023-12-01T17:02:14.533Z,37.20
2023-12-01T17:04:53.093Z,37.10
2023-12-01T17:07:30.336Z,37.30
2023-12-01T17:10:07.202Z,38.40
2023-12-01T17:12:43.522Z,37.80
2023-12-01T17:15:26.119Z,39.50
2023-12-01T17:18:06.339Z,38.20
2023-12-01T17:20:47.649Z,39.00
2023-12-01T17:23:25.110Z,37.70
2023-12-01T17:26:05.498Z,36.60
2023-12-01T17:28:41.188Z,42.60
2023-12-01T17:31:26.771Z,38.40
2023-12-01T17:34:06.790Z,37.00
2023-12-01T17:36:50.733Z,35.90
2023-12-01T17:39:31.667Z,38.20
2023-12-01T17:42:09.419Z,40.80
2023-12-01T17:44:47.509Z,40.10
2023-12-01T17:47:23.316Z,38.50
2023-12-01T17:50:00.308Z,35.80
2023-12-01T17:52:40.535Z,38.70
2023-12-01T17:55:20.342Z,38.70
2023-12-01T17:58:00.317Z,33.70
2023-12-01T18:00:38.601Z,37.50
2023-12-01T18:03:21.233Z,31.20
2023-12-01T18:06:02.198Z,31.70
2023-12-01T18:08:42.714Z,30.20
2023-12-01T18:11:19.899Z,34.70
2023-12-01T18:13:55.844Z,34.30
2023-12-01T18:16:30.741Z,30.50
2023-12-01T18:19:04.190Z,32.60
2023-12-01T18:21:37.338Z,36.10
2023-12-01T18:24:10.318Z,32.60
2023-12-01T18:26:44.660Z,33.20
2023-12-01T18:29:17.512Z,34.00
2023-12-01T18:31:50.143Z,33.40
2023-12-01T18:34:22.869Z,36.70
2023-12-01T18:36:57.912Z,37.40
2023-12-01T18:39:31.351Z,32.90
2023-12-01T18:42:04.159Z,35.20
2023-12-01T18:44:36.843Z,37.40
2023-12-01T18:47:09.860Z,32.40
2023-12-01T18:49:42.467Z,37.30
2023-12-01T18:52:15.140Z,34.80
2023-12-01T18:54:47.691Z,34.30
2023-12-01T18:57:20.190Z,36.60
2023-12-01T18:59:53.064Z,36.40
2023-12-01T19:02:25.605Z,34.60
2023-12-01T19:04:58.333Z,32.00
2023-12-01T19:07:33.126Z,35.20
2023-12-01T19:10:06.373Z,36.70
2023-12-01T19:12:38.905Z,37.20
2023-12-01T19:15:14.118Z,35.70
2023-12-01T19:17:46.783Z,35.40
2023-12-01T19:20:19.931Z,34.30
2023-12-01T19:22:52.409Z,37.00
2023-12-01T19:25:24.991Z,35.90
2023-12-01T19:27:58.045Z,36.50
2023-12-01T19:30:30.801Z,36.20
2023-12-01T19:33:04.793Z,38.50
2023-12-01T19:35:37.297Z,38.30
2023-12-01T19:38:10.624Z,37.10
2023-12-01T19:40:43.095Z,40.30
2023-12-01T19:43:15.750Z,38.40
2023-12-01T19:45:49.331Z,40.30
2023-12-01T19:48:25.096Z,39.60
2023-12-01T19:50:59.036Z,40.40
2023-12-01T19:53:34.922Z,39.80
2023-12-01T19:56:09.928Z,42.00
2023-12-01T19:58:42.501Z,40.10
2023-12-01T20:01:15.247Z,39.20
2023-12-01T20:03:47.712Z,40.70
2023-12-01T20:06:20.503Z,38.30
2023-12-01T20:08:53.225Z,38.80
2023-12-01T20:11:28.333Z,37.60
2023-12-01T20:14:00.985Z,35.80
2023-12-01T20:16:34.197Z,38.00
2023-12-01T20:19:07.100Z,40.10
2023-12-01T20:21:40.459Z,43.80
2023-12-01T20:24:13.114Z,38.00
2023-12-01T20:26:48.029Z,44.20
2023-12-01T20:29:23.473Z,42.20
2023-12-01T20:31:57.235Z,40.40
2023-12-01T20:34:31.458Z,38.70
2023-12-01T20:37:04.279Z,42.60
2023-12-01T20:39:39.910Z,41.10
2023-12-01T20:42:17.910Z,39.90
2023-12-01T20:44:54.405Z,37.10
2023-12-01T20:47:27.394Z,41.50
2023-12-01T20:50:01.125Z,39.10
2023-12-01T20:52:34.401Z,37.10
2023-12-01T20:55:09.874Z,44.90
2023-12-01T21:00:29.521Z,45.70
2023-12-01T21:00:50.494Z,43.30
2023-12-01T21:03:25.807Z,44.50
2023-12-01T21:05:58.624Z,41.10
2023-12-01T21:08:31.570Z,40.00
2023-12-01T21:11:06.701Z,36.50
2023-12-01T21:13:41.097Z,31.20
2023-12-01T21:16:16.388Z,50.20
2023-12-01T21:19:19.394Z,35.80
2023-12-01T21:21:55.874Z,41.20
2023-12-01T21:24:31.073Z,43.80
2023-12-01T21:27:03.745Z,36.80
2023-12-01T21:29:39.548Z,40.80
2023-12-01T21:32:31.271Z,39.20
2023-12-01T21:35:25.400Z,39.30
2023-12-01T21:38:02.092Z,39.00
2023-12-01T21:40:37.269Z,39.60
2023-12-01T21:44:49.275Z,41.20
2023-12-01T21:47:02.560Z,40.60
2023-12-01T21:49:44.174Z,41.90
2023-12-01T21:52:25.819Z,38.60
2023-12-01T21:55:06.614Z,36.80
2023-12-01T21:57:42.638Z,38.40
2023-12-01T22:00:16.918Z,40.80
2023-12-01T22:02:49.828Z,39.40
2023-12-01T22:05:25.196Z,43.10
2023-12-01T22:07:58.332Z,44.20
2023-12-01T22:10:30.949Z,43.00
2023-12-01T22:13:04.302Z,40.90
2023-12-01T22:15:37.136Z,45.80
2023-12-01T22:18:10.033Z,38.30
2023-12-01T22:20:42.732Z,40.00
2023-12-01T22:23:15.462Z,39.00
2023-12-01T22:25:47.965Z,37.40
2023-12-01T22:28:20.592Z,39.70
2023-12-01T22:30:54.178Z,37.90
2023-12-01T22:33:26.847Z,40.90
2023-12-01T22:36:03.018Z,41.60
2023-12-01T22:38:40.978Z,41.00
2023-12-01T22:41:14.896Z,42.50
2023-12-01T22:43:49.099Z,45.30
2023-12-01T22:46:21.706Z,41.00
2023-12-01T22:48:54.281Z,38.40
2023-12-01T22:51:28.952Z,42.80
2023-12-01T22:54:04.809Z,40.40
2023-12-01T22:56:37.467Z,37.70
2023-12-01T22:59:12.163Z,42.70
2023-12-01T23:01:45.269Z,41.30
2023-12-01T23:04:20.170Z,42.10
2023-12-01T23:06:54.843Z,43.40
2023-12-01T23:09:27.450Z,42.20
2023-12-01T23:12:01.835Z,45.70
2023-12-01T23:14:36.980Z,39.20
2023-12-01T23:17:09.765Z,40.60
2023-12-01T23:19:50.014Z,40.80
2023-12-01T23:22:26.048Z,42.50
2023-12-01T23:25:10.609Z,44.00
2023-12-01T23:27:46.315Z,48.70
2023-12-01T23:30:25.496Z,43.50
2023-12-01T23:32:59.620Z,47.40
2023-12-01T23:35:32.401Z,53.80
2023-12-01T23:38:08.010Z,50.10
2023-12-01T23:40:44.667Z,44.30
2023-12-01T23:43:19.462Z,45.10
2023-12-01T23:45:53.024Z,47.60
2023-12-01T23:48:30.783Z,43.30
2023-12-01T23:51:04.310Z,44.50
2023-12-01T23:53:37.551Z,50.00
2023-12-01T23:56:16.678Z,53.20
2023-12-01T23:58:54.020Z,49.50
